Time;durP1;ratioP1;P1;durP2;ratioP2;P2;SDS_P1;SDS_P2;PMS_P1;PMS_P2;Temp;Humidity;BMP_temperature;BMP_pressure;BME280_temperature;BME280_humidity;BME280_pressure;Samples;Min_cycle;Max_cycle;Signal;HPM_P1;HPM_P2
2023/01/17 00:02:40;;;;;;;9.15;8.25;;;22.10;77.40;;;;;;6214228;28;89147;-73
2023/01/17 00:12:25;;;;;;;9.48;8.50;;;22.10;77.20;;;;;;6224810;28;86594;-72
2023/01/17 00:15:29;;;;;;;10.07;8.93;;;22.10;77.30;;;;;;6221033;28;89211;-73
2023/01/17 00:18:31;;;;;;;9.00;8.10;;;22.10;77.40;;;;;;6231281;28;89181;-72
2023/01/17 01:36:23;;;;;;;7.95;7.15;;;21.80;77.60;;;;;;6230453;28;87429;-72
2023/01/17 01:39:25;;;;;;;8.00;7.20;;;21.80;77.50;;;;;;6229929;28;89101;-72
2023/01/17 01:42:27;;;;;;;8.38;7.55;;;21.80;77.70;;;;;;6227592;28;89143;-72
2023/01/17 01:45:31;;;;;;;8.40;7.50;;;21.80;77.60;;;;;;6207598;28;89149;-72
2023/01/17 01:48:38;;;;;;;8.38;7.57;;;21.80;77.70;;;;;;6219232;28;88253;-72
2023/01/17 01:51:44;;;;;;;7.93;7.15;;;21.80;77.70;;;;;;6218852;28;89446;-73
2023/01/17 01:54:51;;;;;;;7.75;7.03;;;21.80;77.60;;;;;;6212987;28;89079;-72
2023/01/17 01:57:56;;;;;;;7.57;6.88;;;21.80;77.40;;;;;;6229569;28;90137;-73
2023/01/17 02:00:59;;;;;;;7.57;6.88;;;21.80;77.50;;;;;;6223881;28;89563;-71
2023/01/17 02:04:02;;;;;;;7.78;6.97;;;21.80;77.50;;;;;;6216087;28;88009;-72
2023/01/17 02:07:09;;;;;;;7.60;6.90;;;21.70;77.50;;;;;;6228765;28;89024;-72
2023/01/17 02:10:12;;;;;;;7.40;6.70;;;21.70;77.60;;;;;;6220929;28;88953;-71
2023/01/17 02:13:17;;;;;;;7.55;6.75;;;21.70;77.50;;;;;;6216848;28;89037;-73
2023/01/17 02:16:33;;;;;;;7.50;6.80;;;21.70;77.60;;;;;;6224825;28;89051;-72
2023/01/17 02:20:16;;;;;;;7.18;6.47;;;21.70;77.70;;;;;;6228817;28;88359;-72
2023/01/17 02:23:46;;;;;;;7.03;6.38;;;21.70;77.70;;;;;;6193124;28;88536;-72
2023/01/17 02:26:57;;;;;;;7.15;6.28;;;21.70;77.60;;;;;;6222001;28;89064;-70
2023/01/17 02:30:27;;;;;;;7.45;6.68;;;21.70;77.60;;;;;;6217781;28;89988;-72
2023/01/17 02:33:38;;;;;;;6.60;6.00;;;21.70;77.60;;;;;;6218261;28;89097;-73
2023/01/17 02:36:47;;;;;;;7.55;6.28;;;21.70;77.60;;;;;;6220632;28;88950;-72
2023/01/17 02:39:54;;;;;;;7.20;6.50;;;21.70;77.60;;;;;;6231134;28;89225;-72
2023/01/17 02:43:01;;;;;;;6.70;6.00;;;21.60;77.60;;;;;;6220855;28;89154;-72
2023/01/17 02:46:05;;;;;;;6.78;6.18;;;21.70;77.60;;;;;;6216642;28;88491;-72
2023/01/17 02:49:07;;;;;;;6.80;6.20;;;21.60;77.70;;;;;;6226121;28;89073;-72
2023/01/17 02:52:30;;;;;;;6.40;5.80;;;21.60;77.70;;;;;;6218412;28;88369;-72
2023/01/17 02:55:42;;;;;;;6.25;5.65;;;21.60;77.80;;;;;;6230252;28;89101;-71
2023/01/17 02:59:01;;;;;;;6.15;5.55;;;21.60;77.80;;;;;;6215528;28;87890;-72
2023/01/17 03:02:16;;;;;;;6.47;5.88;;;21.60;77.60;;;;;;6225543;28;90151;-72
2023/01/17 03:05:23;;;;;;;5.97;5.38;;;21.60;77.70;;;;;;6215876;28;89100;-72
2023/01/17 03:08:27;;;;;;;6.25;5.65;;;21.60;77.60;;;;;;6218028;28;89091;-71
2023/01/17 03:11:29;;;;;;;6.07;5.47;;;21.60;77.60;;;;;;6211354;28;88339;-72
2023/01/17 03:14:31;;;;;;;6.07;5.47;;;21.60;77.60;;;;;;6231966;28;89072;-72
2023/01/17 03:17:34;;;;;;;6.30;5.70;;;21.60;77.70;;;;;;6221351;28;89032;-71
2023/01/17 03:20:37;;;;;;;5.95;5.35;;;21.60;77.70;;;;;;6227361;28;89173;-72
2023/01/17 03:23:39;;;;;;;6.18;5.57;;;21.50;77.70;;;;;;6231461;28;88500;-71
2023/01/17 03:26:43;;;;;;;5.43;4.93;;;21.50;77.70;;;;;;6230888;28;89321;-72
2023/01/17 03:29:45;;;;;;;5.70;5.20;;;21.50;77.70;;;;;;6232884;28;89075;-72
2023/01/17 03:32:49;;;;;;;5.72;5.22;;;21.50;77.70;;;;;;6226225;28;90003;-71
2023/01/17 03:35:51;;;;;;;6.00;5.30;;;21.50;77.80;;;;;;6217859;28;89365;-72
2023/01/17 03:38:53;;;;;;;5.53;5.03;;;21.50;77.70;;;;;;6220785;28;89550;-72
2023/01/17 03:41:55;;;;;;;5.80;4.82;;;21.50;77.70;;;;;;6227216;28;89049;-71
2023/01/17 03:44:57;;;;;;;5.22;4.72;;;21.50;77.70;;;;;;6220510;28;89095;-72
2023/01/17 03:48:01;;;;;;;5.60;5.00;;;21.50;77.70;;;;;;6211567;28;88479;-72
2023/01/17 03:51:03;;;;;;;5.50;5.00;;;21.50;77.70;;;;;;6228604;28;89058;-73
2023/01/17 03:54:05;;;;;;;4.95;4.43;;;21.50;77.70;;;;;;6227252;28;88713;-72
2023/01/17 03:57:08;;;;;;;5.20;4.70;;;21.40;77.70;;;;;;6232795;28;89083;-72
2023/01/17 04:00:11;;;;;;;5.10;4.60;;;21.50;77.80;;;;;;6226297;28;89013;-72
2023/01/17 04:03:15;;;;;;;5.20;4.70;;;21.40;77.80;;;;;;6219796;28;90025;-71
2023/01/17 04:06:17;;;;;;;5.15;4.75;;;21.40;77.70;;;;;;6225622;28;88166;-72
2023/01/17 04:09:19;;;;;;;5.30;4.80;;;21.40;77.70;;;;;;6216840;28;88611;-71
2023/01/17 04:12:21;;;;;;;4.88;4.47;;;21.40;77.80;;;;;;6224013;28;89268;-70
2023/01/17 04:15:23;;;;;;;4.63;4.22;;;21.40;77.80;;;;;;6232580;28;90240;-72
2023/01/17 04:18:27;;;;;;;4.75;4.35;;;21.40;77.70;;;;;;6232428;28;88721;-71
2023/01/17 04:21:29;;;;;;;4.82;4.32;;;21.40;77.70;;;;;;6232159;28;89170;-71
2023/01/17 04:24:31;;;;;;;4.50;4.10;;;21.40;77.70;;;;;;6232757;28;88354;-71
2023/01/17 04:27:34;;;;;;;4.45;4.05;;;21.40;77.40;;;;;;6210988;28;89167;-72
2023/01/17 04:30:36;;;;;;;5.00;4.50;;;21.40;77.30;;;;;;6206849;28;89093;-71
2023/01/17 04:33:40;;;;;;;4.57;4.18;;;21.40;77.40;;;;;;6222114;28;89970;-72
2023/01/17 04:36:42;;;;;;;4.72;3.78;;;21.40;77.30;;;;;;6209510;28;89066;-72
2023/01/17 04:39:44;;;;;;;4.70;4.30;;;21.40;77.30;;;;;;6225776;28;89041;-71
2023/01/17 04:42:46;;;;;;;4.65;4.25;;;21.40;77.30;;;;;;6231267;28;89045;-72
2023/01/17 04:45:54;;;;;;;4.30;3.90;;;21.40;77.20;;;;;;6215317;28;89102;-71
2023/01/17 04:48:57;;;;;;;4.10;3.70;;;21.40;77.20;;;;;;6210186;28;87948;-72
2023/01/17 04:51:59;;;;;;;3.60;3.30;;;21.40;77.20;;;;;;6231892;28;89470;-72
2023/01/17 04:55:02;;;;;;;4.00;3.60;;;21.50;77.20;;;;;;6216674;28;88603;-72
2023/01/17 04:58:05;;;;;;;4.10;3.70;;;21.50;77.20;;;;;;6222013;28;89476;-73
2023/01/17 05:01:08;;;;;;;3.95;3.60;;;21.50;77.20;;;;;;6230334;28;89062;-72
2023/01/17 05:04:12;;;;;;;3.78;3.47;;;21.50;77.10;;;;;;6225190;28;90052;-72
2023/01/17 05:07:14;;;;;;;3.80;3.40;;;21.50;77.10;;;;;;6213203;28;88282;-72
2023/01/17 05:10:17;;;;;;;3.47;3.17;;;21.50;77.10;;;;;;6223294;28;87974;-72
2023/01/17 05:13:19;;;;;;;3.78;3.45;;;21.60;77.20;;;;;;6217844;28;89094;-72
2023/01/17 05:16:21;;;;;;;3.90;3.50;;;21.50;77.10;;;;;;6208801;28;89353;-72
2023/01/17 05:19:26;;;;;;;3.70;3.35;;;21.60;77.10;;;;;;6218463;28;88004;-73
2023/01/17 05:22:28;;;;;;;3.75;3.45;;;21.60;77.10;;;;;;6230104;28;88570;-73
2023/01/17 05:25:31;;;;;;;3.47;3.17;;;21.60;77.10;;;;;;6219606;28;88358;-72
2023/01/17 05:28:33;;;;;;;4.10;3.55;;;21.70;77.10;;;;;;6220790;28;89021;-72
2023/01/17 05:31:36;;;;;;;3.67;3.38;;;21.70;77.10;;;;;;6218215;28;89118;-72
2023/01/17 05:34:39;;;;;;;3.20;2.95;;;21.70;77.00;;;;;;6230861;28;89981;-72
2023/01/17 05:37:47;;;;;;;3.05;2.83;;;21.70;76.90;;;;;;6206817;28;89111;-72
2023/01/17 05:40:50;;;;;;;3.10;2.80;;;21.70;76.90;;;;;;6216241;28;89085;-72
2023/01/17 05:43:52;;;;;;;3.47;2.92;;;21.70;76.90;;;;;;6230514;28;89028;-72
2023/01/17 05:46:54;;;;;;;3.15;2.85;;;21.70;76.80;;;;;;6229072;28;89128;-71
2023/01/17 05:49:58;;;;;;;3.50;3.20;;;21.80;76.90;;;;;;6229730;28;89186;-71
2023/01/17 05:53:02;;;;;;;3.42;2.90;;;21.80;76.90;;;;;;6227921;28;89442;-72
2023/01/17 05:56:05;;;;;;;3.40;3.10;;;21.80;76.80;;;;;;6227356;28;88315;-72
2023/01/17 05:59:07;;;;;;;3.15;2.80;;;21.80;76.80;;;;;;6222077;28;89416;-72
2023/01/17 06:02:09;;;;;;;3.13;2.83;;;21.80;76.70;;;;;;6223980;28;89106;-71
2023/01/17 06:05:13;;;;;;;3.47;3.00;;;21.80;76.60;;;;;;6218359;28;90369;-72
2023/01/17 06:08:15;;;;;;;2.80;2.47;;;21.90;76.70;;;;;;6222555;28;88950;-74
2023/01/17 06:11:18;;;;;;;3.65;2.85;;;21.90;79.70;;;;;;6228931;28;89240;-77
2023/01/17 06:14:20;;;;;;;3.45;3.15;;;21.90;78.40;;;;;;6229149;28;89045;-77
2023/01/17 06:17:22;;;;;;;3.00;2.70;;;22.00;77.80;;;;;;6233366;28;88945;-75
2023/01/17 06:20:26;;;;;;;3.28;2.90;;;22.00;77.40;;;;;;6228131;28;89043;-78
2023/01/17 06:23:28;;;;;;;2.90;2.60;;;22.10;77.20;;;;;;6228583;28;89173;-77
2023/01/17 06:26:30;;;;;;;3.15;2.85;;;22.10;77.10;;;;;;6232787;28;88292;-77
2023/01/17 06:29:32;;;;;;;3.05;2.75;;;22.10;77.10;;;;;;6232646;28;89396;-77
2023/01/17 06:32:34;;;;;;;2.70;2.50;;;22.10;77.00;;;;;;6232520;28;89145;-78
2023/01/17 06:35:39;;;;;;;2.88;2.58;;;22.10;77.00;;;;;;6225054;28;90259;-77
2023/01/17 06:38:41;;;;;;;2.72;2.50;;;22.10;77.00;;;;;;6215681;28;89019;-77
2023/01/17 06:41:43;;;;;;;2.55;2.35;;;22.20;76.90;;;;;;6222399;28;88914;-76
2023/01/17 06:44:45;;;;;;;2.58;2.38;;;22.10;76.70;;;;;;6217672;28;89141;-76
2023/01/17 06:47:47;;;;;;;2.95;2.53;;;22.20;76.70;;;;;;6216700;28;89030;-78
2023/01/17 06:50:51;;;;;;;2.78;2.47;;;22.10;76.70;;;;;;6218304;28;89346;-78
2023/01/17 06:53:53;;;;;;;2.40;2.20;;;22.10;76.60;;;;;;6225098;28;89161;-76
2023/01/17 06:56:55;;;;;;;2.92;2.60;;;22.10;76.60;;;;;;6217478;28;88304;-77
2023/01/17 06:59:57;;;;;;;2.42;2.22;;;22.10;76.60;;;;;;6230751;28;88815;-76
2023/01/17 07:02:59;;;;;;;3.33;2.45;;;22.20;76.60;;;;;;6230034;28;89158;-76
2023/01/17 07:06:03;;;;;;;2.47;2.28;;;22.10;76.60;;;;;;6233236;28;90110;-77
2023/01/17 07:09:05;;;;;;;2.50;2.30;;;22.20;76.60;;;;;;6231371;28;89179;-77
2023/01/17 07:12:08;;;;;;;2.30;2.10;;;22.20;76.60;;;;;;6221032;28;89249;-76
2023/01/17 07:15:11;;;;;;;2.35;2.15;;;22.20;76.60;;;;;;6233268;28;89408;-78
2023/01/17 07:18:13;;;;;;;3.58;2.63;;;22.10;76.50;;;;;;6218561;28;89129;-76
2023/01/17 07:21:16;;;;;;;2.58;2.38;;;22.10;76.50;;;;;;6220184;28;89749;-75
2023/01/17 07:24:19;;;;;;;2.40;2.20;;;22.10;76.50;;;;;;6219086;28;89162;-76
2023/01/17 07:27:21;;;;;;;2.17;1.98;;;22.20;76.60;;;;;;6227906;28;88318;-77
2023/01/17 07:30:23;;;;;;;4.53;2.20;;;22.20;76.50;;;;;;6228464;28;89023;-74
2023/01/17 07:33:25;;;;;;;2.13;1.92;;;22.20;76.50;;;;;;6230596;28;88014;-75
2023/01/17 07:36:29;;;;;;;3.30;2.20;;;22.20;76.60;;;;;;6230325;28;88944;-74
2023/01/17 07:39:31;;;;;;;3.15;2.10;;;22.20;76.50;;;;;;6215747;28;89134;-74
2023/01/17 07:42:33;;;;;;;3.95;2.17;;;22.20;76.50;;;;;;6225146;28;89001;-74
2023/01/17 07:45:35;;;;;;;3.22;2.28;;;22.20;76.40;;;;;;6218344;28;89150;-75
2023/01/17 07:48:37;;;;;;;2.72;2.00;;;22.20;76.40;;;;;;6207814;28;89501;-75
2023/01/17 07:51:41;;;;;;;3.22;2.10;;;22.20;76.40;;;;;;6231795;28;89108;-74
2023/01/17 07:54:43;;;;;;;2.10;1.90;;;22.20;76.40;;;;;;6231066;28;89453;-75
2023/01/17 07:57:49;;;;;;;3.60;2.05;;;22.20;76.40;;;;;;6231627;28;88530;-75
2023/01/17 08:00:51;;;;;;;2.72;2.10;;;22.20;76.40;;;;;;6226835;28;88011;-74
2023/01/17 08:03:54;;;;;;;2.20;2.00;;;22.20;76.40;;;;;;6229614;28;89136;-74
2023/01/17 08:06:59;;;;;;;2.50;2.30;;;22.20;76.40;;;;;;6225970;28;90021;-75
2023/01/17 08:10:01;;;;;;;2.42;1.95;;;22.30;76.40;;;;;;6221560;28;89153;-73
2023/01/17 08:13:04;;;;;;;3.28;2.03;;;22.20;76.40;;;;;;6223941;28;89220;-75
2023/01/17 08:16:06;;;;;;;3.42;1.90;;;22.30;76.40;;;;;;6211359;28;89073;-74
2023/01/17 08:19:09;;;;;;;2.67;1.80;;;22.30;76.40;;;;;;6224046;28;88130;-77
2023/01/17 08:22:12;;;;;;;2.67;1.95;;;22.30;76.40;;;;;;6231693;28;89153;-74
2023/01/17 08:25:14;;;;;;;2.92;2.40;;;22.30;76.40;;;;;;6221721;28;87769;-76
2023/01/17 08:28:18;;;;;;;2.35;1.90;;;22.30;76.40;;;;;;6232934;28;87193;-74
2023/01/17 08:31:20;;;;;;;1.92;1.70;;;22.30;76.40;;;;;;6220766;28;89141;-74
2023/01/17 08:34:22;;;;;;;3.05;1.88;;;22.30;76.40;;;;;;6230236;28;89432;-75
2023/01/17 08:37:26;;;;;;;2.05;1.75;;;22.30;76.40;;;;;;6229705;28;89920;-74
2023/01/17 08:40:28;;;;;;;2.13;1.92;;;22.30;76.40;;;;;;6217489;28;89069;-75
2023/01/17 08:43:30;;;;;;;2.38;1.90;;;22.30;76.50;;;;;;6228849;28;89049;-74
2023/01/17 08:46:32;;;;;;;2.15;1.95;;;22.40;76.50;;;;;;6229181;28;89165;-75
2023/01/17 08:49:34;;;;;;;2.10;1.70;;;22.40;76.60;;;;;;6225099;28;89413;-75
2023/01/17 08:52:37;;;;;;;1.98;1.85;;;22.40;77.50;;;;;;6230188;28;87910;-76
2023/01/17 08:55:39;;;;;;;2.17;1.92;;;22.40;76.60;;;;;;6228975;28;89332;-75
2023/01/17 08:58:43;;;;;;;1.90;1.70;;;22.40;76.60;;;;;;6228629;28;88333;-75
2023/01/17 09:01:45;;;;;;;3.15;1.70;;;22.40;76.60;;;;;;6225618;28;89168;-75
2023/01/17 09:04:48;;;;;;;2.45;1.70;;;22.50;76.70;;;;;;6229655;28;89400;-75
2023/01/17 09:07:51;;;;;;;2.15;1.67;;;22.50;76.80;;;;;;6224342;28;89727;-75
2023/01/17 09:10:53;;;;;;;1.65;1.50;;;22.50;76.90;;;;;;6223605;28;89102;-75
2023/01/17 09:13:55;;;;;;;2.60;1.65;;;22.50;76.90;;;;;;6231838;28;88759;-75
2023/01/17 09:16:57;;;;;;;2.13;1.60;;;22.50;77.00;;;;;;6223591;28;89165;-75
2023/01/17 09:19:59;;;;;;;1.63;1.50;;;22.50;77.10;;;;;;6227315;28;89285;-75
2023/01/17 09:23:04;;;;;;;1.70;1.60;;;22.50;77.10;;;;;;6223655;28;88937;-75
2023/01/17 09:26:06;;;;;;;1.95;1.70;;;22.50;77.20;;;;;;6224552;28;88785;-76
2023/01/17 09:29:08;;;;;;;2.17;1.85;;;22.50;77.30;;;;;;6216246;28;88359;-75
2023/01/17 09:32:10;;;;;;;1.95;1.70;;;22.60;77.40;;;;;;6222986;28;89227;-76
2023/01/17 09:35:12;;;;;;;2.47;1.73;;;22.60;77.50;;;;;;6229024;28;89303;-75
2023/01/17 09:38:17;;;;;;;2.28;1.65;;;22.60;77.60;;;;;;6228016;28;90253;-75
2023/01/17 09:41:26;;;;;;;1.95;1.60;;;22.60;77.70;;;;;;6221169;28;90068;-76
2023/01/17 09:44:33;;;;;;;1.70;1.60;;;22.60;77.70;;;;;;6227310;28;89229;-75
2023/01/17 09:47:40;;;;;;;2.50;1.50;;;22.60;77.70;;;;;;6214345;28;88045;-75
2023/01/17 09:50:47;;;;;;;1.60;1.40;;;22.60;77.80;;;;;;6225047;28;89170;-75
2023/01/17 09:53:52;;;;;;;1.60;1.40;;;22.60;77.80;;;;;;6219859;28;89124;-74
2023/01/17 09:57:01;;;;;;;1.63;1.42;;;22.60;77.90;;;;;;6217879;28;89003;-75
2023/01/17 10:00:12;;;;;;;1.70;1.60;;;22.60;78.00;;;;;;6218852;28;87289;-75
2023/01/17 10:03:31;;;;;;;1.80;1.55;;;22.60;78.00;;;;;;6222040;28;89288;-74
2023/01/17 10:06:49;;;;;;;1.58;1.40;;;22.60;78.00;;;;;;6212077;28;89207;-74
2023/01/17 10:10:13;;;;;;;1.60;1.50;;;22.70;78.20;;;;;;6220243;28;90348;-75
2023/01/17 10:13:28;;;;;;;1.55;1.42;;;22.70;78.30;;;;;;6218930;28;89153;-74
2023/01/17 10:16:41;;;;;;;1.65;1.50;;;22.70;78.30;;;;;;6222736;28;89499;-71
2023/01/17 10:20:00;;;;;;;3.60;1.52;;;22.70;78.60;;;;;;6212787;28;89205;-69
2023/01/17 10:23:15;;;;;;;1.60;1.50;;;22.70;78.70;;;;;;6218484;28;89087;-72
2023/01/17 10:26:23;;;;;;;2.00;1.80;;;22.70;79.10;;;;;;6227068;28;89216;-72
2023/01/17 10:29:32;;;;;;;2.03;1.60;;;22.70;79.10;;;;;;6222860;28;89123;-71
2023/01/17 10:32:42;;;;;;;2.20;2.00;;;22.80;79.50;;;;;;6225311;28;88760;-76
2023/01/17 10:35:55;;;;;;;14.35;13.15;;;22.80;80.00;;;;;;6213232;28;89121;-74
2023/01/17 10:39:01;;;;;;;11.40;10.30;;;22.90;81.50;;;;;;6217408;28;89069;-73
2023/01/17 10:42:14;;;;;;;6.43;5.80;;;23.10;80.80;;;;;;6224789;28;90332;-74
2023/01/17 10:45:19;;;;;;;5.25;4.75;;;23.40;79.40;;;;;;6223161;28;89213;-72
2023/01/17 10:48:33;;;;;;;5.05;4.65;;;23.70;78.20;;;;;;6222087;28;90240;-77
2023/01/17 10:51:58;;;;;;;4.90;4.50;;;23.90;77.40;;;;;;6225197;28;88644;-74
2023/01/17 10:55:10;;;;;;;4.45;4.05;;;24.00;76.90;;;;;;6223304;28;89224;-74
2023/01/17 10:58:14;;;;;;;4.50;4.10;;;24.00;76.40;;;;;;6227666;28;89392;-74
2023/01/17 11:01:19;;;;;;;4.70;4.00;;;23.90;76.50;;;;;;6229659;28;89019;-74
2023/01/17 11:04:26;;;;;;;4.18;3.78;;;23.80;76.90;;;;;;6233402;28;88300;-74
2023/01/17 11:07:29;;;;;;;4.10;3.55;;;23.70;77.20;;;;;;6232011;28;88981;-74
2023/01/17 11:10:38;;;;;;;4.10;3.55;;;23.70;77.70;;;;;;6225252;28;89146;-74
2023/01/17 11:13:42;;;;;;;4.32;3.25;;;23.60;77.90;;;;;;6227271;28;90296;-75
2023/01/17 11:16:45;;;;;;;11.80;3.10;;;23.50;78.10;;;;;;6231167;28;90092;-75
2023/01/17 11:19:50;;;;;;;3.30;3.00;;;23.50;78.30;;;;;;6233470;28;89053;-74
2023/01/17 11:23:04;;;;;;;6.47;3.10;;;23.40;78.30;;;;;;6232983;28;89375;-74
2023/01/17 11:26:09;;;;;;;3.53;2.90;;;23.30;78.30;;;;;;6227384;28;89001;-73
2023/01/17 11:29:25;;;;;;;3.60;2.80;;;23.30;78.60;;;;;;6233713;28;89216;-73
2023/01/17 11:32:32;;;;;;;3.58;2.67;;;23.30;78.60;;;;;;6233214;28;88325;-74
2023/01/17 11:35:35;;;;;;;2.88;2.67;;;23.30;78.70;;;;;;6233535;28;88401;-73
2023/01/17 11:38:37;;;;;;;5.00;2.63;;;23.20;78.60;;;;;;6219490;28;89099;-74
2023/01/17 11:41:41;;;;;;;3.08;2.50;;;23.20;78.60;;;;;;6232499;28;89210;-73
2023/01/17 11:44:44;;;;;;;2.53;2.33;;;23.20;78.60;;;;;;6228849;28;90158;-74
2023/01/17 11:47:46;;;;;;;3.22;2.20;;;23.20;78.60;;;;;;6222389;28;89092;-73
2023/01/17 11:50:56;;;;;;;2.33;2.13;;;23.20;78.60;;;;;;6231339;28;89030;-72
2023/01/17 11:54:14;;;;;;;2.35;2.03;;;23.20;78.60;;;;;;6227449;28;89190;-74
2023/01/17 11:57:22;;;;;;;2.60;1.90;;;23.10;78.50;;;;;;6230465;28;89148;-73
2023/01/17 12:00:33;;;;;;;2.63;2.03;;;23.20;78.60;;;;;;6231620;28;89123;-74
2023/01/17 12:04:11;;;;;;;3.28;2.17;;;23.20;78.50;;;;;;6230412;28;89149;-73
2023/01/17 12:07:27;;;;;;;2.30;2.00;;;23.10;78.50;;;;;;6181164;28;88355;-73
2023/01/17 12:10:36;;;;;;;2.22;1.85;;;23.10;78.50;;;;;;6224681;28;89188;-73
2023/01/17 12:14:02;;;;;;;3.50;2.10;;;23.10;78.40;;;;;;6225560;28;89249;-73
2023/01/17 12:17:16;;;;;;;2.28;1.85;;;23.10;78.40;;;;;;6219922;28;89971;-72
2023/01/17 12:20:26;;;;;;;2.67;1.80;;;23.10;78.50;;;;;;6208013;28;88054;-73
2023/01/17 12:23:45;;;;;;;2.65;1.90;;;23.10;78.50;;;;;;6232728;28;89062;-72
2023/01/17 12:26:55;;;;;;;2.53;1.75;;;23.10;78.40;;;;;;6221382;28;89179;-73
2023/01/17 12:30:10;;;;;;;2.67;1.92;;;23.10;78.50;;;;;;6232282;28;89062;-74
2023/01/17 12:33:24;;;;;;;2.42;1.67;;;23.10;78.40;;;;;;6231970;28;88006;-74
2023/01/17 12:36:38;;;;;;;3.25;1.90;;;23.10;78.40;;;;;;6232368;28;89128;-73
2023/01/17 12:39:46;;;;;;;2.33;1.73;;;23.10;78.40;;;;;;6228443;28;88451;-74
2023/01/17 12:42:52;;;;;;;1.60;1.50;;;23.10;78.40;;;;;;6232434;28;89138;-74
2023/01/17 12:45:55;;;;;;;1.73;1.50;;;23.10;78.40;;;;;;6231809;28;89006;-73
2023/01/17 12:49:04;;;;;;;1.75;1.50;;;23.10;78.40;;;;;;6217999;28;88014;-73
2023/01/17 12:52:14;;;;;;;1.63;1.52;;;23.10;78.40;;;;;;6230074;28;87535;-74
2023/01/17 12:55:21;;;;;;;1.50;1.38;;;23.10;78.50;;;;;;6223361;28;89034;-74
2023/01/17 12:58:28;;;;;;;1.65;1.38;;;23.00;78.40;;;;;;6225436;28;89068;-74
2023/01/17 13:01:38;;;;;;;1.73;1.40;;;23.10;78.50;;;;;;6230513;28;89450;-73
2023/01/17 13:04:46;;;;;;;2.70;1.60;;;23.10;78.40;;;;;;6230117;28;89195;-73
2023/01/17 13:07:55;;;;;;;2.13;1.60;;;23.10;78.40;;;;;;6225059;28;89037;-73
2023/01/17 13:11:04;;;;;;;2.13;1.42;;;23.10;78.40;;;;;;6222978;28;88289;-73
2023/01/17 13:14:09;;;;;;;1.65;1.33;;;23.10;78.40;;;;;;6227838;28;89278;-74
2023/01/17 13:17:26;;;;;;;1.38;1.25;;;23.00;78.40;;;;;;6219662;28;89355;-74
2023/01/17 13:20:36;;;;;;;1.77;1.30;;;23.00;78.40;;;;;;6205844;28;88933;-73
2023/01/17 13:24:04;;;;;;;2.22;1.60;;;23.10;78.40;;;;;;6230159;28;89042;-74
2023/01/17 13:27:37;;;;;;;1.40;1.30;;;23.00;78.40;;;;;;6215728;28;89597;-72
2023/01/17 13:31:00;;;;;;;1.73;1.33;;;23.00;78.40;;;;;;6203405;28;88558;-74
2023/01/17 13:34:14;;;;;;;1.52;1.10;;;23.00;78.30;;;;;;6205462;28;89085;-73
2023/01/17 13:37:38;;;;;;;1.45;1.33;;;23.00;78.20;;;;;;6226731;28;89078;-74
2023/01/17 13:40:50;;;;;;;2.17;1.30;;;23.00;78.20;;;;;;6221986;28;89134;-73
2023/01/17 13:47:37;;;;;;;1.27;1.17;;;23.00;78.10;;;;;;6221736;28;88925;-74
2023/01/17 13:50:48;;;;;;;1.75;1.33;;;23.00;78.10;;;;;;6219456;28;88023;-72
2023/01/17 13:53:53;;;;;;;1.58;1.40;;;23.00;78.10;;;;;;6227654;28;91036;-72
2023/01/17 13:57:31;;;;;;;1.55;1.20;;;23.00;78.10;;;;;;6216622;28;89196;-72
2023/01/17 14:00:53;;;;;;;2.10;1.50;;;23.00;78.90;;;;;;6226114;28;89004;-71
2023/01/17 14:04:04;;;;;;;1.73;1.40;;;23.00;77.90;;;;;;6229403;28;89170;-72
2023/01/17 14:07:19;;;;;;;1.30;1.20;;;23.00;77.90;;;;;;6229826;28;88961;-72
2023/01/17 14:10:32;;;;;;;1.67;1.10;;;23.00;78.00;;;;;;6229113;28;88917;-72
2023/01/17 14:13:36;;;;;;;1.60;1.30;;;23.00;77.90;;;;;;6224985;28;89093;-72
2023/01/17 14:16:39;;;;;;;1.30;1.10;;;23.00;77.90;;;;;;6221486;28;88350;-72
2023/01/17 14:19:42;;;;;;;1.40;1.25;;;23.00;77.90;;;;;;6217341;28;89116;-73
2023/01/17 14:22:52;;;;;;;1.55;1.30;;;23.00;77.90;;;;;;6218404;28;89168;-72
2023/01/17 14:25:59;;;;;;;1.60;1.10;;;23.00;77.90;;;;;;6219600;28;89970;-72
2023/01/17 14:29:34;;;;;;;1.38;1.13;;;23.00;77.90;;;;;;6223490;28;89063;-71
2023/01/17 14:32:38;;;;;;;1.30;1.20;;;23.00;77.90;;;;;;6215782;28;87935;-72
2023/01/17 14:35:51;;;;;;;1.23;1.10;;;23.00;77.90;;;;;;6224906;28;89235;-71
2023/01/17 14:38:53;;;;;;;1.10;1.00;;;23.00;77.90;;;;;;6218902;28;87979;-73
2023/01/17 14:41:58;;;;;;;1.40;1.20;;;23.00;78.90;;;;;;6232629;28;89114;-72
2023/01/17 14:45:04;;;;;;;1.95;1.35;;;23.00;78.00;;;;;;6230349;28;89031;-72
2023/01/17 14:48:18;;;;;;;1.45;1.10;;;23.00;78.00;;;;;;6221259;28;88369;-72
2023/01/17 14:51:23;;;;;;;1.30;1.20;;;23.00;78.00;;;;;;6232586;28;89159;-72
2023/01/17 14:54:25;;;;;;;1.30;1.13;;;23.00;78.00;;;;;;6228520;28;89526;-71
2023/01/17 14:57:29;;;;;;;2.05;1.10;;;23.00;78.10;;;;;;6224120;28;90466;-72
2023/01/17 15:00:33;;;;;;;1.30;1.20;;;23.00;78.10;;;;;;6230598;28;89092;-72
2023/01/17 15:03:44;;;;;;;1.40;1.13;;;22.90;78.10;;;;;;6216992;28;89172;-71
2023/01/17 15:06:46;;;;;;;1.35;1.10;;;23.00;78.10;;;;;;6225499;28;89109;-72
2023/01/17 15:09:48;;;;;;;1.20;1.10;;;23.00;78.20;;;;;;6221524;28;89030;-72
2023/01/17 15:12:52;;;;;;;1.48;1.20;;;23.00;78.10;;;;;;6233279;28;89191;-72
2023/01/17 15:16:04;;;;;;;1.27;1.05;;;22.90;78.00;;;;;;6233288;28;88874;-72
2023/01/17 15:19:11;;;;;;;1.95;1.13;;;23.00;78.10;;;;;;6233167;28;87215;-72
2023/01/17 15:22:14;;;;;;;2.47;1.20;;;23.00;78.10;;;;;;6218284;28;89596;-71
2023/01/17 15:25:17;;;;;;;2.47;1.08;;;22.90;78.10;;;;;;6223136;28;89820;-72
2023/01/17 15:28:21;;;;;;;1.23;1.10;;;23.00;78.10;;;;;;6209614;28;89889;-72
2023/01/17 15:31:25;;;;;;;1.50;1.10;;;23.00;78.10;;;;;;6220155;28;89134;-71
2023/01/17 15:34:29;;;;;;;1.70;1.10;;;23.00;78.00;;;;;;6220054;28;89121;-71
2023/01/17 15:37:34;;;;;;;1.77;1.50;;;23.00;78.00;;;;;;6223502;28;89124;-72
2023/01/17 15:40:44;;;;;;;1.52;1.00;;;23.00;78.00;;;;;;6228154;28;89065;-72
2023/01/17 15:43:48;;;;;;;1.35;1.20;;;23.00;78.00;;;;;;6221783;28;89310;-70
2023/01/17 15:46:50;;;;;;;2.35;1.25;;;23.00;78.00;;;;;;6228192;28;89106;-72
2023/01/17 15:49:52;;;;;;;1.20;1.10;;;23.00;78.00;;;;;;6217915;28;88323;-72
2023/01/17 15:52:56;;;;;;;1.42;1.10;;;23.00;78.00;;;;;;6221686;28;88864;-74
2023/01/17 15:55:59;;;;;;;1.90;1.15;;;23.00;77.90;;;;;;6223438;28;88151;-73
2023/01/17 15:59:22;;;;;;;2.47;1.20;;;23.00;78.00;;;;;;6225040;28;89010;-73
2023/01/17 16:02:33;;;;;;;3.53;1.20;;;23.00;77.90;;;;;;6224432;28;89098;-73
2023/01/17 16:05:42;;;;;;;2.20;1.00;;;23.00;77.90;;;;;;6225185;28;88089;-73
2023/01/17 16:08:52;;;;;;;3.35;1.25;;;23.00;77.90;;;;;;6216880;28;89297;-71
2023/01/17 16:11:54;;;;;;;1.65;1.33;;;23.00;77.90;;;;;;6223240;28;89045;-73
2023/01/17 16:14:58;;;;;;;2.95;1.38;;;23.00;77.90;;;;;;6226800;28;89470;-73
2023/01/17 16:18:05;;;;;;;1.98;1.30;;;23.00;77.80;;;;;;6223601;28;89313;-71
2023/01/17 16:21:20;;;;;;;1.63;1.10;;;23.00;77.80;;;;;;6228288;28;88608;-71
2023/01/17 16:24:22;;;;;;;1.65;1.15;;;23.00;77.80;;;;;;6218292;28;89051;-69
2023/01/17 16:27:24;;;;;;;1.20;1.10;;;23.00;77.80;;;;;;6231066;28;89432;-71
2023/01/17 16:30:29;;;;;;;1.23;1.10;;;23.00;77.70;;;;;;6219556;28;90012;-72
2023/01/17 16:33:31;;;;;;;2.55;1.42;;;23.00;77.70;;;;;;6211576;28;89337;-71
2023/01/17 16:36:35;;;;;;;2.38;1.38;;;23.00;77.70;;;;;;6231514;28;88306;-70
2023/01/17 16:39:38;;;;;;;1.52;1.13;;;23.00;77.70;;;;;;6231142;28;89211;-71
2023/01/17 16:42:40;;;;;;;1.38;1.27;;;23.10;77.80;;;;;;6229444;28;89069;-70
2023/01/17 16:45:46;;;;;;;2.08;1.30;;;23.00;77.60;;;;;;6218497;28;89095;-71
2023/01/17 16:48:48;;;;;;;2.38;1.10;;;23.00;77.60;;;;;;6232068;28;89082;-70
2023/01/17 16:51:50;;;;;;;1.50;1.00;;;23.10;77.60;;;;;;6230533;28;88356;-71
2023/01/17 16:54:53;;;;;;;1.80;1.10;;;23.10;77.60;;;;;;6228260;28;87990;-72
2023/01/17 16:57:57;;;;;;;2.28;1.20;;;23.00;77.40;;;;;;6225709;28;88727;-71
2023/01/17 17:01:01;;;;;;;1.80;1.05;;;23.10;77.40;;;;;;6231491;28;88911;-73
2023/01/17 17:04:03;;;;;;;2.33;1.20;;;23.00;77.30;;;;;;6213357;28;89444;-71
2023/01/17 17:07:05;;;;;;;2.13;1.30;;;23.10;77.40;;;;;;6221318;28;89789;-71
2023/01/17 17:10:08;;;;;;;1.30;1.08;;;23.00;77.30;;;;;;6230847;28;88287;-71
2023/01/17 17:13:10;;;;;;;2.15;1.55;;;23.10;77.30;;;;;;6229307;28;88115;-71
2023/01/17 17:16:16;;;;;;;1.95;1.30;;;23.10;77.30;;;;;;6216549;28;89499;-71
2023/01/17 17:19:19;;;;;;;1.20;1.10;;;23.00;77.40;;;;;;6205956;28;88791;-71
2023/01/17 17:22:21;;;;;;;1.30;1.20;;;23.00;77.10;;;;;;6232437;28;88251;-71
2023/01/17 17:25:23;;;;;;;1.90;1.30;;;23.00;77.10;;;;;;6227814;28;89580;-71
2023/01/17 17:28:26;;;;;;;2.08;1.33;;;23.00;77.10;;;;;;6219101;28;89125;-70
2023/01/17 17:31:29;;;;;;;1.75;1.10;;;23.00;76.90;;;;;;6206521;28;89942;-71
2023/01/17 17:34:33;;;;;;;2.38;1.20;;;23.10;77.00;;;;;;6219255;28;89050;-70